createdAt,value
2022-11-17T00:01:21.852Z,96714.13
2022-11-17T00:03:49.480Z,96714.19
2022-11-17T00:06:17.502Z,96712.47
2022-11-17T00:08:43.965Z,96716.03
2022-11-17T00:11:10.541Z,96707.72
2022-11-17T00:13:55.362Z,96706.94
2022-11-17T00:16:22.308Z,96709.56
2022-11-17T00:19:07.440Z,96701.72
2022-11-17T00:21:34.907Z,96698.47
2022-11-17T00:24:01.521Z,96693.38
2022-11-17T00:26:30.811Z,96691.50
2022-11-17T00:29:01.708Z,96701.31
2022-11-17T00:31:48.700Z,96705.63
2022-11-17T00:34:20.339Z,96690.09
2022-11-17T00:36:49.181Z,96695.53
2022-11-17T00:39:17.050Z,96683.53
2022-11-17T00:41:43.614Z,96699.81
2022-11-17T00:44:10.750Z,96693.81
2022-11-17T00:46:38.327Z,96687.31
2022-11-17T00:49:06.348Z,96694.22
2022-11-17T00:51:33.331Z,96690.97
2022-11-17T00:54:00.387Z,96694.34
2022-11-17T00:56:27.654Z,96692.69
2022-11-17T00:58:54.631Z,96690.16
2022-11-17T01:01:21.661Z,96690.03
2022-11-17T01:03:48.515Z,96677.97
2022-11-17T01:06:17.865Z,96688.13
2022-11-17T01:08:45.010Z,96679.59
2022-11-17T01:11:17.318Z,96683.03
2022-11-17T01:13:46.043Z,96673.59
2022-11-17T01:16:13.584Z,96685.41
2022-11-17T01:18:40.743Z,96679.34
2022-11-17T01:21:10.374Z,96669.91
2022-11-17T01:23:41.784Z,96660.53
2022-11-17T01:26:10.865Z,96666.47
2022-11-17T01:28:38.291Z,96667.13
2022-11-17T01:31:12.426Z,96662.03
2022-11-17T01:33:39.801Z,96662.72
2022-11-17T01:36:11.476Z,96655.25
2022-11-17T01:38:38.159Z,96643.22
2022-11-17T01:41:06.672Z,96643.09
2022-11-17T01:43:57.732Z,96650.69
2022-11-17T01:46:36.959Z,96648.84
2022-11-17T01:49:13.064Z,96644.41
2022-11-17T01:51:44.223Z,96642.44
2022-11-17T01:54:13.129Z,96637.34
2022-11-17T01:56:44.579Z,96630.53
2022-11-17T01:59:27.938Z,96635.44
2022-11-17T02:01:55.909Z,96629.47
2022-11-17T02:04:26.014Z,96622.75
2022-11-17T02:06:57.142Z,96616.50
2022-11-17T02:09:24.584Z,96617.31
2022-11-17T02:11:51.062Z,96615.31
2022-11-17T02:14:18.012Z,96599.28
2022-11-17T02:16:44.453Z,96599.09
2022-11-17T02:19:14.301Z,96591.34
2022-11-17T02:22:08.785Z,96583.59
2022-11-17T02:24:35.091Z,96586.91
2022-11-17T02:27:29.425Z,96590.66
2022-11-17T02:30:20.389Z,96581.91
2022-11-17T02:33:09.756Z,96578.38
2022-11-17T02:35:56.653Z,96580.34
2022-11-17T02:38:35.330Z,96579.38
2022-11-17T02:41:07.027Z,96585.16
2022-11-17T02:44:05.650Z,96576.78
2022-11-17T02:46:59.978Z,96566.47
2022-11-17T02:49:31.410Z,96574.78
2022-11-17T02:51:59.398Z,96570.81
2022-11-17T02:54:29.210Z,96558.88
2022-11-17T02:56:55.650Z,96560.50
2022-11-17T02:59:28.157Z,96546.63
2022-11-17T03:02:33.188Z,96557.75
2022-11-17T03:05:17.008Z,96538.06
2022-11-17T03:07:58.430Z,96531.88
2022-11-17T03:10:51.204Z,96517.47
2022-11-17T03:13:48.129Z,96510.50
2022-11-17T03:16:33.309Z,96507.63
2022-11-17T03:19:41.506Z,96500.03
2022-11-17T03:22:13.101Z,96494.63
2022-11-17T03:24:43.962Z,96485.41
2022-11-17T03:27:18.841Z,96486.38
2022-11-17T03:29:50.539Z,96488.78
2022-11-17T03:32:18.606Z,96487.03
2022-11-17T03:34:51.854Z,96477.66
2022-11-17T03:37:21.184Z,96475.03
2022-11-17T03:39:55.170Z,96481.19
2022-11-17T03:42:25.997Z,96487.91
2022-11-17T03:44:57.294Z,96492.28
2022-11-17T03:47:27.166Z,96497.47
2022-11-17T03:50:02.599Z,96486.97
2022-11-17T03:52:30.496Z,96486.03
2022-11-17T03:54:57.472Z,96481.69
2022-11-17T03:57:30.762Z,96491.69
2022-11-17T04:00:00.835Z,96482.59
2022-11-17T04:02:28.092Z,96485.34
2022-11-17T04:05:06.676Z,96480.03
2022-11-17T04:07:35.744Z,96469.66
2022-11-17T04:10:03.480Z,96466.13
2022-11-17T04:12:48.623Z,96466.06
2022-11-17T04:15:34.048Z,96463.78
2022-11-17T04:18:00.711Z,96456.31
2022-11-17T04:20:27.155Z,96458.88
2022-11-17T04:23:08.637Z,96451.06
2022-11-17T04:26:05.307Z,96443.44
2022-11-17T04:28:39.787Z,96441.16
2022-11-17T04:31:14.954Z,96441.00
2022-11-17T04:33:42.991Z,96441.84
2022-11-17T04:36:11.804Z,96436.91
2022-11-17T04:38:41.682Z,96430.84
2022-11-17T04:41:31.256Z,96439.06
2022-11-17T04:43:57.802Z,96436.78
2022-11-17T04:46:25.375Z,96428.28
2022-11-17T04:48:56.790Z,96424.50
2022-11-17T04:51:24.466Z,96419.41
2022-11-17T04:53:51.685Z,96423.63
2022-11-17T04:56:19.929Z,96411.72
2022-11-17T04:58:46.864Z,96402.13
2022-11-17T05:01:13.745Z,96415.00
2022-11-17T05:03:44.810Z,96406.69
2022-11-17T05:06:19.214Z,96411.78
2022-11-17T05:08:46.574Z,96409.81
2022-11-17T05:11:33.265Z,96410.03
2022-11-17T05:14:00.197Z,96414.25
2022-11-17T05:16:45.687Z,96410.16
2022-11-17T05:19:18.252Z,96415.91
2022-11-17T05:21:44.773Z,96406.22
2022-11-17T05:24:20.445Z,96405.38
2022-11-17T05:26:48.198Z,96406.44
2022-11-17T05:29:17.633Z,96408.94
2022-11-17T05:31:47.480Z,96408.06
2022-11-17T05:34:17.264Z,96411.41
2022-11-17T05:36:44.111Z,96407.03
2022-11-17T05:39:10.778Z,96416.47
2022-11-17T05:41:37.263Z,96413.06
2022-11-17T05:44:04.543Z,96410.38
2022-11-17T05:46:30.963Z,96419.84
2022-11-17T05:48:58.332Z,96422.53
2022-11-17T05:51:25.074Z,96428.31
2022-11-17T05:53:54.910Z,96422.47
2022-11-17T05:56:55.300Z,96418.19
2022-11-17T05:59:35.962Z,96424.44
2022-11-17T06:02:24.682Z,96424.16
2022-11-17T06:04:51.591Z,96424.00
2022-11-17T06:07:19.495Z,96428.31
2022-11-17T06:09:46.691Z,96423.66
2022-11-17T06:12:13.241Z,96409.75
2022-11-17T06:14:39.854Z,96419.97
2022-11-17T06:17:20.591Z,96419.09
2022-11-17T06:19:53.806Z,96422.63
2022-11-17T06:22:20.921Z,96414.03
2022-11-17T06:24:47.583Z,96430.22
2022-11-17T06:27:16.413Z,96443.91
2022-11-17T06:29:45.078Z,96456.91
2022-11-17T06:32:17.168Z,96460.19
2022-11-17T06:34:49.167Z,96460.94
2022-11-17T06:37:18.929Z,96470.56
2022-11-17T06:39:45.367Z,96464.66
2022-11-17T06:42:11.932Z,96472.28
2022-11-17T06:44:38.327Z,96461.09
2022-11-17T06:47:05.866Z,96449.03
2022-11-17T06:49:32.247Z,96445.66
2022-11-17T06:52:01.719Z,96444.19
2022-11-17T06:54:28.094Z,96440.75
2022-11-17T06:56:55.333Z,96442.44
2022-11-17T06:59:21.870Z,96446.75
2022-11-17T07:01:48.277Z,96437.03
2022-11-17T07:04:14.745Z,96421.09
2022-11-17T07:06:44.118Z,96426.06
2022-11-17T07:09:13.597Z,96415.41
2022-11-17T07:11:42.930Z,96412.06
2022-11-17T07:14:09.376Z,96428.34
2022-11-17T07:16:35.745Z,96430.91
2022-11-17T07:19:03.705Z,96425.78
2022-11-17T07:21:30.693Z,96407.66
2022-11-17T07:23:57.240Z,96397.56
2022-11-17T07:26:23.611Z,96406.69
2022-11-17T07:28:50.226Z,96415.91
2022-11-17T07:31:16.668Z,96415.00
2022-11-17T07:33:43.116Z,96420.13
2022-11-17T07:36:14.644Z,96418.06
2022-11-17T07:38:41.419Z,96431.75
2022-11-17T07:41:10.017Z,96418.19
2022-11-17T07:43:36.959Z,96434.47
2022-11-17T07:46:08.692Z,96411.88
2022-11-17T07:48:35.549Z,96415.97
2022-11-17T07:51:07.467Z,96416.13
2022-11-17T07:53:35.117Z,96424.69
2022-11-17T07:56:07.109Z,96429.81
2022-11-17T07:58:33.890Z,96425.34
2022-11-17T08:01:05.383Z,96419.88
2022-11-17T08:03:31.870Z,96426.53
2022-11-17T08:06:05.316Z,96429.00
2022-11-17T08:08:32.338Z,96428.88
2022-11-17T08:11:10.486Z,96421.19
2022-11-17T08:13:39.491Z,96421.13
2022-11-17T08:16:07.258Z,96420.91
2022-11-17T08:18:34.134Z,96408.66
2022-11-17T08:21:04.417Z,96411.16
2022-11-17T08:23:31.716Z,96413.78
2022-11-17T08:25:58.481Z,96415.38
2022-11-17T08:28:27.471Z,96418.53
2022-11-17T08:30:54.036Z,96412.38
2022-11-17T08:33:20.773Z,96424.16
2022-11-17T08:35:49.505Z,96425.41
2022-11-17T08:38:15.900Z,96422.84
2022-11-17T08:40:42.579Z,96431.19
2022-11-17T08:43:08.978Z,96423.38
2022-11-17T08:45:35.427Z,96424.22
2022-11-17T08:48:04.296Z,96429.88
2022-11-17T08:50:33.357Z,96430.66
2022-11-17T08:52:59.758Z,96438.25
2022-11-17T08:55:26.423Z,96445.03
2022-11-17T08:57:52.969Z,96446.03
2022-11-17T09:00:20.791Z,96441.28
2022-11-17T09:02:47.444Z,96436.66
2022-11-17T09:05:13.918Z,96444.22
2022-11-17T09:07:40.351Z,96448.94
2022-11-17T09:10:09.394Z,96447.88
2022-11-17T09:12:35.771Z,96448.53
2022-11-17T09:15:02.243Z,96437.03
2022-11-17T09:17:28.674Z,96441.72
2022-11-17T09:19:55.153Z,96440.75
2022-11-17T09:22:21.720Z,96435.47
2022-11-17T09:24:50.901Z,96429.00
2022-11-17T09:27:17.404Z,96431.56
2022-11-17T09:29:43.973Z,96433.03
2022-11-17T09:32:10.393Z,96437.22
2022-11-17T09:34:36.865Z,96430.97
2022-11-17T09:37:03.305Z,96440.84
2022-11-17T09:39:29.861Z,96439.22
2022-11-17T09:41:57.306Z,96426.47
2022-11-17T09:44:39.628Z,96422.63
2022-11-17T09:47:30.282Z,96416.44
2022-11-17T09:50:16.101Z,96403.47
2022-11-17T09:53:20.189Z,96403.88
2022-11-17T09:55:50.916Z,96409.03
2022-11-17T09:58:49.473Z,96418.84
2022-11-17T10:01:20.671Z,96416.22
2022-11-17T10:03:49.342Z,96411.41
2022-11-17T10:06:21.678Z,96416.84
2022-11-17T10:09:22.464Z,96414.91
2022-11-17T10:11:53.892Z,96397.97
2022-11-17T10:14:21.968Z,96389.34
2022-11-17T10:16:51.297Z,96384.94
2022-11-17T10:19:21.219Z,96386.69
2022-11-17T10:21:52.969Z,96397.97
2022-11-17T10:24:34.903Z,96392.47
2022-11-17T10:27:03.323Z,96390.50
2022-11-17T10:29:30.093Z,96399.69
2022-11-17T10:31:57.431Z,96412.28
2022-11-17T10:34:41.141Z,96400.47
2022-11-17T10:37:28.987Z,96402.50
2022-11-17T10:40:25.099Z,96403.25
2022-11-17T10:43:19.181Z,96407.56
2022-11-17T10:45:48.707Z,96405.91
2022-11-17T10:48:28.363Z,96397.09
2022-11-17T10:51:03.737Z,96402.09
2022-11-17T10:53:42.990Z,96408.38
2022-11-17T10:56:16.961Z,96412.78
2022-11-17T10:59:16.688Z,96409.44
2022-11-17T11:01:45.682Z,96390.13
2022-11-17T11:04:30.637Z,96393.72
2022-11-17T11:07:06.535Z,96402.91
2022-11-17T11:09:34.527Z,96396.69
2022-11-17T11:12:04.653Z,96397.69
2022-11-17T11:14:42.554Z,96385.75
2022-11-17T11:17:12.246Z,96388.16
2022-11-17T11:19:41.246Z,96379.84
2022-11-17T11:22:28.994Z,96389.06
2022-11-17T11:25:15.585Z,96387.31
2022-11-17T11:28:05.226Z,96385.75
2022-11-17T11:30:38.316Z,96392.34
2022-11-17T11:33:30.137Z,96383.09
2022-11-17T11:36:11.327Z,96368.06
2022-11-17T11:38:58.986Z,96371.06
2022-11-17T11:41:44.391Z,96374.19
2022-11-17T11:44:35.773Z,96371.78
2022-11-17T11:47:33.562Z,96370.72
2022-11-17T11:50:19.275Z,96364.06
2022-11-17T11:52:51.318Z,96360.22
2022-11-17T11:55:22.210Z,96360.31
2022-11-17T11:57:54.870Z,96365.28
2022-11-17T12:00:21.478Z,96364.19
2022-11-17T12:02:58.571Z,96361.03
2022-11-17T12:05:41.982Z,96368.63
2022-11-17T12:08:29.266Z,96378.72
2022-11-17T12:11:25.331Z,96373.63
2022-11-17T12:13:54.523Z,96358.03
2022-11-17T12:16:33.280Z,96356.75
2022-11-17T12:19:00.001Z,96360.28
2022-11-17T12:21:27.937Z,96359.25
2022-11-17T12:24:03.445Z,96365.06
2022-11-17T12:26:31.804Z,96356.44
2022-11-17T12:29:20.248Z,96369.09
2022-11-17T12:31:47.434Z,96362.78
2022-11-17T12:34:24.530Z,96372.59
2022-11-17T12:37:15.140Z,96380.13
2022-11-17T12:39:59.960Z,96394.69
2022-11-17T12:42:27.371Z,96394.09
2022-11-17T12:45:00.152Z,96401.72
2022-11-17T12:47:32.346Z,96404.75
2022-11-17T12:50:17.586Z,96421.19
2022-11-17T12:52:55.936Z,96426.72
2022-11-17T12:55:28.736Z,96434.69
2022-11-17T12:58:09.065Z,96440.09
2022-11-17T13:01:09.209Z,96460.94
2022-11-17T13:03:52.001Z,96457.22
2022-11-17T13:06:34.912Z,96441.47
2022-11-17T13:09:10.438Z,96451.25
2022-11-17T13:11:36.857Z,96432.59
2022-11-17T13:14:15.772Z,96435.69
2022-11-17T13:16:50.861Z,96443.56
2022-11-17T13:19:34.152Z,96433.59
2022-11-17T13:22:13.741Z,96464.53
2022-11-17T13:24:42.636Z,96457.66
2022-11-17T13:27:29.737Z,96478.63
2022-11-17T13:30:32.536Z,96452.34
2022-11-17T13:33:02.168Z,96452.75
2022-11-17T13:35:32.743Z,96459.97
2022-11-17T13:38:11.316Z,96454.22
2022-11-17T13:40:40.632Z,96458.28
2022-11-17T13:43:12.082Z,96458.03
2022-11-17T13:45:38.676Z,96458.47
2022-11-17T13:48:05.222Z,96454.47
2022-11-17T13:50:31.557Z,96447.75
2022-11-17T13:53:24.594Z,96451.50
2022-11-17T13:55:52.371Z,96445.50
2022-11-17T13:58:49.721Z,96441.72
2022-11-17T14:01:22.961Z,96435.34
2022-11-17T14:03:49.954Z,96438.72
2022-11-17T14:06:16.346Z,96435.09
2022-11-17T14:09:01.302Z,96429.13
2022-11-17T14:11:27.780Z,96438.41
2022-11-17T14:14:00.997Z,96431.78
2022-11-17T14:16:39.271Z,96432.59
2022-11-17T14:19:14.930Z,96439.22
2022-11-17T14:22:09.398Z,96440.13
2022-11-17T14:24:36.758Z,96434.09
2022-11-17T14:27:12.633Z,96440.31
2022-11-17T14:29:39.024Z,96444.63
2022-11-17T14:32:05.529Z,96444.72
2022-11-17T14:34:31.891Z,96436.91
2022-11-17T14:36:58.344Z,96435.16
2022-11-17T14:39:24.765Z,96441.22
2022-11-17T14:41:51.209Z,96445.03
2022-11-17T14:44:17.603Z,96443.03
2022-11-17T14:46:44.055Z,96449.84
2022-11-17T14:49:10.583Z,96453.41
2022-11-17T14:51:36.989Z,96457.13
2022-11-17T14:54:03.894Z,96454.47
2022-11-17T14:56:30.460Z,96461.28
2022-11-17T14:59:00.526Z,96454.63
2022-11-17T15:01:30.958Z,96447.34
2022-11-17T15:04:20.605Z,96447.34
2022-11-17T15:06:49.302Z,96448.66
2022-11-17T15:09:16.431Z,96459.19
2022-11-17T15:11:42.885Z,96464.69
2022-11-17T15:14:10.805Z,96478.78
2022-11-17T15:16:37.218Z,96470.31
2022-11-17T15:19:03.644Z,96476.94
2022-11-17T15:21:30.039Z,96463.38
2022-11-17T15:23:56.480Z,96457.63
2022-11-17T15:26:23.757Z,96458.91
2022-11-17T15:28:50.180Z,96458.19
2022-11-17T15:31:18.628Z,96467.75
2022-11-17T15:33:47.264Z,96468.63
2022-11-17T15:36:16.496Z,96483.31
2022-11-17T15:38:43.337Z,96486.19
2022-11-17T15:41:14.118Z,96488.06
2022-11-17T15:43:43.029Z,96485.44
2022-11-17T15:46:12.045Z,96489.56
2022-11-17T15:48:42.209Z,96495.25
2022-11-17T15:51:17.346Z,96495.84
2022-11-17T15:53:45.319Z,96493.59
2022-11-17T15:56:23.571Z,96495.78
2022-11-17T15:58:56.702Z,96486.56
2022-11-17T16:01:28.886Z,96495.16
2022-11-17T16:04:05.202Z,96500.53
2022-11-17T16:06:33.296Z,96500.53
2022-11-17T16:08:59.866Z,96499.69
2022-11-17T16:11:27.236Z,96505.66
2022-11-17T16:13:58.266Z,96509.19
2022-11-17T16:16:27.196Z,96500.84
2022-11-17T16:18:54.661Z,96499.09
2022-11-17T16:21:21.200Z,96489.72
2022-11-17T16:23:55.837Z,96481.03
2022-11-17T16:26:24.399Z,96486.25
2022-11-17T16:28:55.521Z,96494.78
2022-11-17T16:31:24.462Z,96508.69
2022-11-17T16:34:00.063Z,96510.47
2022-11-17T16:36:35.552Z,96511.19
2022-11-17T16:39:03.379Z,96511.19
2022-11-17T16:41:35.320Z,96515.31
2022-11-17T16:44:03.274Z,96519.53
2022-11-17T16:46:31.244Z,96515.16
2022-11-17T16:49:02.214Z,96525.34
2022-11-17T16:51:28.847Z,96532.22
2022-11-17T16:53:57.619Z,96520.44
2022-11-17T16:56:24.106Z,96510.94
2022-11-17T16:58:51.085Z,96506.72
2022-11-17T17:01:20.754Z,96508.69
2022-11-17T17:03:47.251Z,96512.06
2022-11-17T17:06:16.466Z,96517.28
2022-11-17T17:08:43.249Z,96509.66
2022-11-17T17:11:15.810Z,96496.50
2022-11-17T17:13:42.762Z,96495.06
2022-11-17T17:16:12.534Z,96496.59
2022-11-17T17:18:39.209Z,96509.09
2022-11-17T17:21:06.800Z,96507.50
2022-11-17T17:23:34.852Z,96511.75
2022-11-17T17:26:17.365Z,96524.50
2022-11-17T17:28:48.475Z,96528.88
2022-11-17T17:31:21.239Z,96533.94
2022-11-17T17:33:48.799Z,96527.22
2022-11-17T17:36:17.761Z,96523.91
2022-11-17T17:38:46.809Z,96520.41
2022-11-17T17:41:20.132Z,96510.94
2022-11-17T17:43:47.954Z,96509.19
2022-11-17T17:46:17.359Z,96495.69
2022-11-17T17:48:44.999Z,96492.25
2022-11-17T17:51:13.809Z,96499.28
2022-11-17T17:53:40.917Z,96504.78
2022-11-17T17:56:09.774Z,96497.09
2022-11-17T17:58:41.097Z,96510.91
2022-11-17T18:01:12.001Z,96512.84
2022-11-17T18:03:39.699Z,96506.97
2022-11-17T18:06:07.513Z,96500.16
2022-11-17T18:08:35.487Z,96493.97
2022-11-17T18:11:12.140Z,96494.94
2022-11-17T18:13:41.615Z,96489.66
2022-11-17T18:16:13.426Z,96467.34
2022-11-17T18:18:40.587Z,96460.72
2022-11-17T18:21:09.969Z,96455.66
2022-11-17T18:23:37.453Z,96458.63
2022-11-17T18:26:12.263Z,96469.84
2022-11-17T18:28:39.937Z,96475.06
2022-11-17T18:31:07.456Z,96478.59
2022-11-17T18:33:34.677Z,96476.78
2022-11-17T18:36:08.385Z,96479.47
2022-11-17T18:38:35.890Z,96460.06
2022-11-17T18:41:13.869Z,96454.97
2022-11-17T18:43:40.449Z,96458.69
2022-11-17T18:46:10.245Z,96448.44
2022-11-17T18:48:38.952Z,96443.50
2022-11-17T18:51:21.469Z,96451.00
2022-11-17T18:53:49.714Z,96450.22
2022-11-17T18:56:21.375Z,96470.75
2022-11-17T18:58:47.919Z,96497.44
2022-11-17T19:01:17.519Z,96493.31
2022-11-17T19:03:46.183Z,96501.81
2022-11-17T19:06:14.128Z,96527.56
2022-11-17T19:08:40.901Z,96517.81
2022-11-17T19:11:08.519Z,96510.97
2022-11-17T19:13:37.490Z,96511.13
2022-11-17T19:16:25.954Z,96497.50
2022-11-17T19:18:54.547Z,96488.25
2022-11-17T19:21:23.525Z,96498.63
2022-11-17T19:23:52.088Z,96494.44
2022-11-17T19:26:23.932Z,96493.50
2022-11-17T19:28:54.106Z,96496.84
2022-11-17T19:31:20.641Z,96492.59
2022-11-17T19:33:48.281Z,96488.38
2022-11-17T19:36:29.321Z,96496.06
2022-11-17T19:38:57.567Z,96488.38
2022-11-17T19:41:31.967Z,96491.84
2022-11-17T19:44:00.674Z,96491.84
2022-11-17T19:46:28.500Z,96502.28
2022-11-17T19:48:56.344Z,96508.22
2022-11-17T19:51:24.250Z,96509.88
2022-11-17T19:53:52.850Z,96511.69
2022-11-17T19:56:19.534Z,96513.41
2022-11-17T19:58:46.781Z,96520.22
2022-11-17T20:01:15.016Z,96513.28
2022-11-17T20:03:42.047Z,96517.50
2022-11-17T20:06:10.505Z,96521.59
2022-11-17T20:08:37.348Z,96525.81
2022-11-17T20:11:08.460Z,96519.09
2022-11-17T20:13:36.039Z,96519.84
2022-11-17T20:16:07.509Z,96519.84
2022-11-17T20:18:38.025Z,96524.91
2022-11-17T20:21:05.931Z,96527.47
2022-11-17T20:23:37.300Z,96519.78
2022-11-17T20:26:06.271Z,96520.47
2022-11-17T20:28:34.834Z,96515.41
2022-11-17T20:31:22.528Z,96505.06
2022-11-17T20:33:49.095Z,96508.03
2022-11-17T20:36:18.551Z,96504.56
2022-11-17T20:38:45.577Z,96508.94
2022-11-17T20:41:11.981Z,96511.63
2022-11-17T20:43:38.481Z,96514.13
2022-11-17T20:46:05.113Z,96510.91
2022-11-17T20:48:34.096Z,96516.63
2022-11-17T20:51:00.568Z,96517.63
2022-11-17T20:53:30.256Z,96521.09
2022-11-17T20:56:00.549Z,96510.75
2022-11-17T20:58:28.326Z,96506.16
2022-11-17T21:00:55.820Z,96507.13
2022-11-17T21:03:23.659Z,96503.78
2022-11-17T21:06:05.049Z,96499.94
2022-11-17T21:08:33.990Z,96506.13
2022-11-17T21:11:02.404Z,96506.41
2022-11-17T21:13:30.392Z,96503.91
2022-11-17T21:16:14.727Z,96512.53
2022-11-17T21:18:48.251Z,96508.28
2022-11-17T21:21:17.808Z,96517.66
2022-11-17T21:23:44.262Z,96519.22
2022-11-17T21:26:17.107Z,96520.16
2022-11-17T21:28:43.626Z,96521.78
2022-11-17T21:31:12.909Z,96515.97
2022-11-17T21:33:40.024Z,96520.28
2022-11-17T21:36:12.209Z,96521.78
2022-11-17T21:38:43.044Z,96517.66
2022-11-17T21:41:31.673Z,96514.16
2022-11-17T21:44:00.106Z,96520.16
2022-11-17T21:46:31.965Z,96519.94
2022-11-17T21:49:01.912Z,96520.97
2022-11-17T21:51:33.303Z,96512.84
2022-11-17T21:54:07.794Z,96515.84
2022-11-17T21:56:34.276Z,96522.50
2022-11-17T21:59:03.384Z,96523.53
2022-11-17T22:01:30.873Z,96524.50
2022-11-17T22:03:57.396Z,96514.16
2022-11-17T22:06:26.027Z,96518.19
2022-11-17T22:08:53.443Z,96515.84
2022-11-17T22:11:37.773Z,96514.16
2022-11-17T22:14:15.848Z,96521.66
2022-11-17T22:16:46.159Z,96523.31
2022-11-17T22:19:14.472Z,96519.28
2022-11-17T22:21:41.987Z,96521.13
2022-11-17T22:24:10.487Z,96521.88
2022-11-17T22:26:38.472Z,96535.47
2022-11-17T22:29:06.549Z,96531.22
2022-11-17T22:31:32.956Z,96527.63
2022-11-17T22:33:59.515Z,96537.09
2022-11-17T22:36:25.922Z,96536.34
2022-11-17T22:38:52.967Z,96534.69
2022-11-17T22:41:21.204Z,96539.81
2022-11-17T22:43:51.873Z,96549.94
2022-11-17T22:46:19.787Z,96552.44
2022-11-17T22:48:46.461Z,96554.94
2022-11-17T22:51:13.503Z,96568.53
2022-11-17T22:53:40.063Z,96569.41
2022-11-17T22:56:08.142Z,96574.69
2022-11-17T22:58:34.520Z,96578.94
2022-11-17T23:01:07.882Z,96573.09
2022-11-17T23:03:34.479Z,96565.31
2022-11-17T23:06:04.951Z,96575.59
2022-11-17T23:08:32.237Z,96578.94
2022-11-17T23:11:34.837Z,96578.84
2022-11-17T23:13:50.799Z,96574.91
2022-11-17T23:16:17.875Z,96573.22
2022-11-17T23:18:44.320Z,96576.34
2022-11-17T23:21:11.039Z,96569.34
2022-11-17T23:23:39.221Z,96563.38
2022-11-17T23:26:08.650Z,96570.34
2022-11-17T23:28:35.675Z,96561.19
2022-11-17T23:31:03.773Z,96563.03
2022-11-17T23:33:41.802Z,96563.97
2022-11-17T23:36:20.008Z,96565.75
2022-11-17T23:38:47.224Z,96570.81
2022-11-17T23:41:15.622Z,96558.84
2022-11-17T23:43:42.373Z,96561.31
2022-11-17T23:46:14.530Z,96562.16
2022-11-17T23:48:41.929Z,96561.31
2022-11-17T23:51:19.794Z,96551.88
2022-11-17T23:53:46.868Z,96546.00
2022-11-17T23:56:13.916Z,96546.09
2022-11-17T23:58:41.485Z,96550.38
